MUCU/SCU METAR and TAF weather

Enter ICAO airport designator
Station Type Date Time Source
MUCU METAR 2022/06/26 07:50 UTC NOAA

MUCU 260750Z 02004KT 350V050 8000 FEW020 24/24 Q1015


Station Type Date Time Source
MUCU Decoded METAR 2022/06/26 07:50 UTC NOAA

Santiago De Cuba, Oriente, Cuba (MUCU) 19-58N 075-51W 55M
Jun 26, 2022 - 03:50 AM EDT / 2022.06.26 0750 UTC
Wind: from the NNE (020 degrees) at 5 MPH (4 KT) (direction variable):0
Visibility: 4 mile(s):0
Sky conditions: mostly clear
Temperature: 75 F (24 C)
Dew Point: 75 F (24 C)
Relative Humidity: 100%
Pressure (altimeter): 29.97 in. Hg (1015 hPa)
ob: MUCU 260750Z 02004KT 350V050 8000 FEW020 24/24 Q1015
cycle: 8

Station Type Date Time Source
MUCU TAF 2022/06/26 06:04 UTC NOAA

TAF MUCU 260500Z 2606/2706 VRB03KT 9000 SCT020
TEMPO 2619/2701 4000 TSRA SCT018CB BKN020

Example: see airport list